Time;durP1;ratioP1;P1;durP2;ratioP2;P2;SDS_P1;SDS_P2;PMS_P1;PMS_P2;Temp;Humidity;BMP_temperature;BMP_pressure;BME280_temperature;BME280_humidity;BME280_pressure;Samples;Min_cycle;Max_cycle;Signal;HPM_P1;HPM_P2
2022/01/30 00:01:22;;;;;;;28.60;5.05;;;5.60;99.90;;;;;;5062621;28;20147;-52
2022/01/30 00:03:50;;;;;;;34.75;5.30;;;5.60;99.90;;;;;;5063153;28;20705;-48
2022/01/30 00:06:16;;;;;;;34.50;5.50;;;;;;;;;;5061675;28;20049;-51
2022/01/30 00:08:42;;;;;;;38.33;6.00;;;;;;;;;;5061570;28;20040;-50
2022/01/30 00:11:15;;;;;;;34.92;5.30;;;5.60;99.90;;;;;;5062347;28;20227;-48
2022/01/30 00:13:41;;;;;;;31.58;4.63;;;5.70;99.90;;;;;;5062832;28;20489;-49
2022/01/30 00:16:10;;;;;;;28.90;5.07;;;;;;;;;;5063045;28;20037;-47
2022/01/30 00:18:46;;;;;;;29.55;5.22;;;5.90;99.90;;;;;;5062915;28;20044;-46
2022/01/30 00:21:28;;;;;;;32.63;4.57;;;6.10;99.90;;;;;;5062249;28;20040;-46
2022/01/30 00:24:03;;;;;;;27.15;4.90;;;6.10;99.90;;;;;;5061919;28;20834;-48
2022/01/30 00:26:32;;;;;;;31.77;4.88;;;6.20;99.90;;;;;;5063690;28;20045;-47
2022/01/30 00:29:00;;;;;;;31.02;4.50;;;6.10;99.90;;;;;;5062858;28;20040;-47
2022/01/30 00:31:27;;;;;;;31.08;5.78;;;6.20;99.90;;;;;;5063085;28;20133;-48
2022/01/30 00:33:54;;;;;;;27.52;6.15;;;6.10;99.90;;;;;;5062611;28;20033;-48
2022/01/30 00:36:20;;;;;;;20.95;3.88;;;;;;;;;;5060894;28;20405;-48
2022/01/30 00:38:45;;;;;;;23.67;3.50;;;5.90;99.90;;;;;;5062025;28;20105;-48
2022/01/30 00:41:12;;;;;;;20.15;3.63;;;;;;;;;;5061697;28;20048;-47
2022/01/30 00:43:40;;;;;;;19.88;3.90;;;5.90;99.90;;;;;;5062245;28;20048;-50
2022/01/30 00:46:05;;;;;;;20.40;3.95;;;5.70;99.90;;;;;;5062368;28;20600;-49
2022/01/30 00:48:31;;;;;;;20.98;3.50;;;5.60;99.90;;;;;;5061822;28;20054;-46
2022/01/30 00:51:00;;;;;;;24.10;3.70;;;5.50;99.90;;;;;;5062515;28;20064;-50
2022/01/30 00:53:26;;;;;;;19.80;3.88;;;;;;;;;;5061985;28;20043;-48
2022/01/30 00:55:52;;;;;;;26.23;5.05;;;;;;;;;;5058375;28;20512;-49
2022/01/30 00:58:18;;;;;;;28.45;4.10;;;;;;;;;;5061515;28;20433;-47
2022/01/30 01:00:44;;;;;;;29.95;5.25;;;5.20;99.90;;;;;;5061160;28;20129;-49
2022/01/30 01:03:10;;;;;;;28.05;3.72;;;;;;;;;;5059209;28;20765;-49
2022/01/30 01:05:38;;;;;;;28.27;5.35;;;5.40;99.90;;;;;;5062089;28;20127;-47
2022/01/30 01:08:14;;;;;;;30.52;5.80;;;5.40;99.90;;;;;;5062098;28;20028;-50
2022/01/30 01:10:46;;;;;;;22.85;5.18;;;;;;;;;;5062174;28;20055;-46
2022/01/30 01:23:57;;;;;;;28.52;4.97;;;5.40;99.90;;;;;;5061424;28;20413;-47
2022/01/30 01:26:24;;;;;;;31.70;5.65;;;3.80;99.90;;;;;;5061788;28;20072;-47
2022/01/30 01:28:50;;;;;;;31.73;5.53;;;;;;;;;;5061698;28;20090;-49
2022/01/30 01:31:17;;;;;;;31.15;6.32;;;5.80;99.90;;;;;;5060479;28;20037;-48
2022/01/30 01:34:03;;;;;;;39.25;5.90;;;5.80;99.90;;;;;;5061142;28;20167;-46
2022/01/30 01:36:29;;;;;;;34.10;5.68;;;;;;;;;;5060975;28;20699;-52
2022/01/30 01:38:57;;;;;;;40.10;4.93;;;5.50;99.90;;;;;;5061380;28;20119;-49
2022/01/30 01:41:24;;;;;;;30.85;7.30;;;5.70;99.90;;;;;;5061508;28;20792;-51
2022/01/30 01:43:51;;;;;;;29.45;4.53;;;;;;;;;;5063030;28;20044;-50
2022/01/30 01:46:25;;;;;;;52.58;7.25;;;5.50;99.90;;;;;;5062267;28;20044;-47
2022/01/30 01:48:53;;;;;;;36.30;6.38;;;;;;;;;;5061479;28;20045;-49
2022/01/30 01:51:26;;;;;;;25.55;4.57;;;5.30;99.90;;;;;;5060867;28;20045;-49
2022/01/30 01:53:57;;;;;;;37.65;6.15;;;5.30;99.90;;;;;;5060169;28;20075;-51
2022/01/30 01:56:23;;;;;;;28.45;5.05;;;;;;;;;;5061895;28;20032;-51
2022/01/30 01:58:51;;;;;;;32.80;6.30;;;5.20;99.90;;;;;;5062477;28;20119;-47
2022/01/30 02:01:17;;;;;;;37.90;6.05;;;;;;;;;;5061783;28;20049;-45
2022/01/30 02:03:45;;;;;;;44.85;7.68;;;;;;;;;;5061571;28;20044;-54
2022/01/30 02:06:15;;;;;;;32.63;4.75;;;5.40;99.90;;;;;;5061038;28;20080;-49
2022/01/30 02:08:50;;;;;;;33.33;7.15;;;;;;;;;;5061139;28;20044;-46
2022/01/30 02:11:29;;;;;;;33.90;5.80;;;5.50;99.90;;;;;;5059671;28;20054;-50
2022/01/30 02:14:21;;;;;;;32.33;6.90;;;5.60;99.90;;;;;;5060759;28;20043;-48
2022/01/30 02:25:20;;;;;;;30.95;5.88;;;;;;;;;;5060164;28;20135;-50
2022/01/30 02:27:46;;;;;;;33.03;4.78;;;5.40;99.90;;;;;;5058892;28;20622;-47
2022/01/30 02:30:18;;;;;;;35.50;5.45;;;5.40;99.90;;;;;;5060399;28;20078;-49
2022/01/30 02:32:45;;;;;;;36.65;5.90;;;;;;;;;;5059949;28;20043;-48
2022/01/30 02:35:11;;;;;;;36.20;7.00;;;5.40;99.90;;;;;;5060544;28;20523;-45
2022/01/30 02:37:37;;;;;;;40.25;6.93;;;;;;;;;;5060723;28;20070;-48
2022/01/30 02:40:08;;;;;;;41.15;7.07;;;5.60;99.90;;;;;;5058781;28;20745;-51
2022/01/30 02:42:39;;;;;;;35.85;5.97;;;5.40;99.90;;;;;;5057790;28;20094;-49
2022/01/30 02:45:09;;;;;;;32.07;5.63;;;;;;;;;;5060571;28;20055;-48
2022/01/30 02:52:44;;;;;;;35.03;5.70;;;5.50;99.90;;;;;;5057592;28;20497;-51
2022/01/30 02:55:12;;;;;;;33.38;4.65;;;5.40;99.90;;;;;;5063319;28;20040;-45
2022/01/30 02:57:38;;;;;;;33.65;6.60;;;5.40;99.90;;;;;;5062551;28;20044;-49
2022/01/30 03:00:07;;;;;;;31.38;5.07;;;5.60;99.90;;;;;;5062644;28;20144;-47
2022/01/30 03:02:33;;;;;;;41.72;5.68;;;;;;;;;;5063905;28;20630;-47
2022/01/30 03:04:58;;;;;;;27.10;5.10;;;5.40;99.90;;;;;;5064801;28;20122;-45
2022/01/30 03:07:26;;;;;;;28.67;5.03;;;5.30;99.90;;;;;;5063985;28;20070;-48
2022/01/30 03:09:52;;;;;;;29.23;5.50;;;;;;;;;;5064235;28;20043;-51
2022/01/30 03:12:18;;;;;;;31.35;6.43;;;;;;;;;;5064531;28;20064;-48
2022/01/30 03:14:44;;;;;;;34.78;6.22;;;5.40;99.90;;;;;;5065841;28;20437;-45
2022/01/30 03:17:10;;;;;;;32.90;6.40;;;;;;;;;;5064853;28;20048;-49
2022/01/30 03:19:36;;;;;;;34.03;5.65;;;5.40;99.90;;;;;;5064211;28;20409;-48
2022/01/30 03:22:03;;;;;;;31.98;6.65;;;5.60;99.90;;;;;;5064215;28;20058;-50
2022/01/30 03:24:36;;;;;;;34.15;6.47;;;5.50;99.90;;;;;;5062421;28;20405;-46
2022/01/30 03:27:09;;;;;;;33.20;6.65;;;5.40;99.90;;;;;;5064633;28;20123;-48
2022/01/30 03:29:37;;;;;;;36.50;7.13;;;;;;;;;;5063988;28;20048;-51
2022/01/30 03:32:03;;;;;;;42.08;6.45;;;5.50;99.90;;;;;;5064134;28;20056;-50
2022/01/30 03:34:29;;;;;;;31.25;5.53;;;5.60;99.90;;;;;;5062446;28;20036;-50
2022/01/30 03:36:56;;;;;;;39.35;5.90;;;5.50;99.90;;;;;;5063178;28;20687;-51
2022/01/30 03:39:22;;;;;;;37.53;5.95;;;;;;;;;;5062023;28;20572;-48
2022/01/30 03:41:48;;;;;;;52.20;8.07;;;;;;;;;;5063050;28;20036;-46
2022/01/30 03:44:16;;;;;;;44.15;8.55;;;5.80;99.90;;;;;;5063128;28;20048;-50
2022/01/30 03:46:42;;;;;;;31.30;5.50;;;;;;;;;;5063658;28;20855;-48
2022/01/30 03:49:08;;;;;;;34.13;6.25;;;;;;;;;;5063643;28;20051;-48
2022/01/30 03:51:36;;;;;;;39.50;7.43;;;5.80;99.90;;;;;;5063098;28;20528;-47
2022/01/30 03:54:02;;;;;;;36.30;6.97;;;;;;;;;;5064100;28;20517;-49
2022/01/30 03:56:28;;;;;;;37.17;6.15;;;;;;;;;;5062708;28;20032;-48
2022/01/30 03:58:54;;;;;;;40.55;6.47;;;;;;;;;;5064421;28;20136;-47
2022/01/30 04:01:20;;;;;;;49.00;7.95;;;;;;;;;;5062510;28;20855;-48
2022/01/30 04:03:46;;;;;;;36.15;5.78;;;;;;;;;;5063619;28;20047;-51
2022/01/30 04:06:13;;;;;;;30.95;6.00;;;5.80;99.90;;;;;;5061452;28;20658;-52
2022/01/30 04:08:43;;;;;;;43.45;9.57;;;5.90;99.90;;;;;;5062828;28;20089;-47
2022/01/30 04:11:09;;;;;;;41.35;8.25;;;5.70;99.90;;;;;;5062567;28;20119;-52
2022/01/30 04:13:35;;;;;;;43.08;7.63;;;;;;;;;;5063255;28;20056;-47
2022/01/30 04:16:04;;;;;;;50.33;7.50;;;5.80;99.90;;;;;;5063985;28;20045;-51
2022/01/30 04:18:29;;;;;;;34.35;6.75;;;5.50;99.90;;;;;;5062381;28;20036;-50
2022/01/30 04:20:55;;;;;;;46.22;8.90;;;;;;;;;;5063489;28;20466;-49
2022/01/30 04:23:21;;;;;;;33.88;7.30;;;5.40;99.90;;;;;;5063245;28;20064;-46
2022/01/30 04:25:48;;;;;;;31.92;6.72;;;5.50;99.90;;;;;;5063594;28;20118;-47
2022/01/30 04:28:14;;;;;;;34.60;7.05;;;;;;;;;;5063464;28;20753;-48
2022/01/30 04:30:43;;;;;;;39.58;5.75;;;5.30;99.90;;;;;;5063690;28;20040;-47
2022/01/30 04:33:09;;;;;;;41.97;6.82;;;5.20;99.90;;;;;;5063537;28;20075;-47
2022/01/30 04:35:35;;;;;;;34.63;5.57;;;5.30;99.90;;;;;;5062199;28;20045;-49
2022/01/30 05:09:39;;;;;;;32.42;6.97;;;5.40;99.90;;;;;;5060993;28;20517;-51
2022/01/30 05:12:07;;;;;;;33.47;6.25;;;6.00;99.90;;;;;;5061519;28;20295;-51
2022/01/30 05:14:36;;;;;;;27.63;6.07;;;;;;;;;;5061700;28;20515;-50
2022/01/30 05:17:04;;;;;;;32.63;5.60;;;5.10;99.90;;;;;;5060805;28;20049;-50
2022/01/30 05:19:32;;;;;;;33.55;6.55;;;5.20;99.90;;;;;;5061253;28;20041;-49
2022/01/30 05:21:58;;;;;;;36.58;6.43;;;;;;;;;;5059267;28;20049;-47
2022/01/30 05:24:24;;;;;;;35.45;6.28;;;5.10;99.90;;;;;;5061280;28;20406;-47
2022/01/30 05:26:52;;;;;;;50.78;6.78;;;5.10;99.90;;;;;;5061621;28;20032;-49
2022/01/30 05:29:18;;;;;;;44.25;7.70;;;;;;;;;;5060411;28;20286;-47
2022/01/30 05:31:44;;;;;;;47.08;8.55;;;5.10;99.90;;;;;;5061839;28;20094;-48
2022/01/30 05:34:10;;;;;;;47.97;7.13;;;;;;;;;;5061687;28;20080;-50
2022/01/30 05:36:39;;;;;;;57.03;10.38;;;5.10;99.90;;;;;;5061561;28;20044;-51
2022/01/30 05:39:05;;;;;;;48.08;7.40;;;;;;;;;;5062990;28;20047;-52
2022/01/30 05:41:33;;;;;;;54.22;8.57;;;5.10;99.90;;;;;;5062973;28;20037;-49
2022/01/30 05:44:08;;;;;;;46.33;11.20;;;5.10;99.90;;;;;;5062399;28;20054;-50
2022/01/30 05:46:48;;;;;;;47.95;7.47;;;5.20;99.90;;;;;;5063458;28;20035;-49
2022/01/30 05:49:15;;;;;;;54.42;8.48;;;5.20;99.90;;;;;;5061860;28;20098;-50
2022/01/30 05:51:41;;;;;;;40.08;7.53;;;;;;;;;;5061683;28;20059;-46
2022/01/30 05:54:08;;;;;;;43.58;8.57;;;;;;;;;;5059618;28;20040;-48
2022/01/30 05:56:34;;;;;;;50.38;9.50;;;;;;;;;;5062874;28;20033;-51
2022/01/30 05:59:00;;;;;;;53.95;10.07;;;5.20;99.90;;;;;;5061714;28;20036;-51
2022/01/30 06:01:27;;;;;;;40.97;8.43;;;;;;;;;;5061135;28;20040;-51
2022/01/30 06:03:53;;;;;;;40.45;7.72;;;;;;;;;;5061400;28;20102;-48
2022/01/30 06:06:22;;;;;;;46.95;7.90;;;5.20;99.90;;;;;;5061342;28;20311;-48
2022/01/30 06:09:18;;;;;;;45.97;7.93;;;;;;;;;;5060897;28;20479;-48
2022/01/30 06:11:50;;;;;;;41.20;7.20;;;5.30;99.90;;;;;;5061305;28;20094;-50
2022/01/30 06:14:22;;;;;;;36.37;6.87;;;5.40;99.90;;;;;;5061229;28;20044;-52
2022/01/30 06:16:53;;;;;;;54.70;9.02;;;;;;;;;;5061027;28;20340;-51
2022/01/30 06:19:19;;;;;;;45.95;8.07;;;;;;;;;;5060925;28;20086;-52
2022/01/30 06:21:53;;;;;;;59.28;9.57;;;5.50;99.90;;;;;;5059963;28;20182;-50
2022/01/30 06:24:18;;;;;;;49.15;8.57;;;5.50;99.90;;;;;;5058855;28;20117;-49
2022/01/30 06:26:44;;;;;;;41.80;7.80;;;;;;;;;;5057422;28;20132;-47
2022/01/30 06:29:12;;;;;;;49.75;10.05;;;5.30;99.90;;;;;;5060285;28;20513;-46
2022/01/30 06:31:38;;;;;;;50.55;8.18;;;;;;;;;;5060489;28;20082;-46
2022/01/30 06:34:04;;;;;;;48.63;7.78;;;5.50;99.90;;;;;;5060278;28;20072;-51
2022/01/30 06:36:30;;;;;;;41.60;7.18;;;;;;;;;;5059517;28;20071;-49
2022/01/30 06:38:56;;;;;;;50.28;9.32;;;;;;;;;;5060723;28;20173;-49
2022/01/30 06:41:22;;;;;;;46.13;8.57;;;;;;;;;;5059312;28;20131;-48
2022/01/30 06:43:50;;;;;;;51.13;10.75;;;5.30;99.90;;;;;;5060843;28;20123;-48
2022/01/30 06:46:16;;;;;;;46.72;8.07;;;5.50;99.90;;;;;;5062252;28;20110;-50
2022/01/30 06:48:42;;;;;;;41.40;7.90;;;;;;;;;;5061505;28;20074;-50
2022/01/30 06:51:08;;;;;;;53.53;10.40;;;;;;;;;;5061351;28;20041;-52
2022/01/30 06:53:34;;;;;;;38.13;7.75;;;5.40;99.90;;;;;;5060416;28;20045;-51
2022/01/30 06:56:00;;;;;;;40.03;6.97;;;;;;;;;;5059615;28;20501;-52
2022/01/30 06:58:26;;;;;;;42.90;7.47;;;;;;;;;;5061217;28;20059;-48
2022/01/30 07:00:52;;;;;;;43.47;7.38;;;5.50;99.90;;;;;;5061101;28;20044;-52
2022/01/30 07:03:18;;;;;;;36.53;8.88;;;;;;;;;;5059120;28;20044;-49
2022/01/30 07:05:44;;;;;;;48.55;8.80;;;;;;;;;;5059493;28;20175;-46
2022/01/30 07:08:13;;;;;;;47.72;7.95;;;5.50;99.90;;;;;;5061492;28;20052;-51
2022/01/30 07:10:40;;;;;;;43.70;8.15;;;5.60;99.90;;;;;;5060162;28;20044;-51
2022/01/30 07:13:07;;;;;;;41.45;7.60;;;;;;;;;;5059587;28;20378;-51
2022/01/30 07:15:33;;;;;;;48.97;8.43;;;;;;;;;;5060562;28;20044;-49
2022/01/30 07:17:59;;;;;;;40.83;7.82;;;;;;;;;;5060029;28;20037;-46
2022/01/30 07:20:25;;;;;;;42.58;6.50;;;5.40;99.90;;;;;;5060361;28;20128;-52
2022/01/30 07:22:52;;;;;;;48.88;9.45;;;;;;;;;;5057979;28;20084;-54
2022/01/30 07:25:18;;;;;;;48.97;9.20;;;;;;;;;;5059119;28;20041;-51
2022/01/30 07:27:46;;;;;;;57.03;10.23;;;;;;;;;;5059230;28;20071;-51
2022/01/30 07:30:14;;;;;;;47.60;8.70;;;5.40;99.90;;;;;;5060535;28;20052;-51
2022/01/30 07:32:42;;;;;;;53.38;8.30;;;5.50;99.90;;;;;;5060495;28;20740;-49
2022/01/30 07:35:08;;;;;;;53.33;9.90;;;;;;;;;;5059515;28;20044;-50
2022/01/30 07:37:35;;;;;;;42.97;7.75;;;5.30;99.90;;;;;;5059827;28;20485;-50
2022/01/30 07:40:02;;;;;;;47.67;8.05;;;5.20;99.90;;;;;;5060381;28;20050;-48
2022/01/30 07:42:28;;;;;;;45.75;8.52;;;;;;;;;;5062190;28;20075;-49
2022/01/30 07:44:55;;;;;;;45.13;8.10;;;;;;;;;;5064099;28;20036;-49
2022/01/30 07:47:23;;;;;;;55.67;9.90;;;5.40;99.90;;;;;;5062176;28;20040;-49
2022/01/30 07:49:51;;;;;;;45.35;7.15;;;;;;;;;;5063149;28;20310;-48
2022/01/30 07:52:21;;;;;;;35.53;6.78;;;5.40;99.90;;;;;;5063598;28;20045;-50
2022/01/30 07:54:47;;;;;;;30.73;6.22;;;5.40;99.90;;;;;;5063064;28;20040;-47
2022/01/30 07:57:14;;;;;;;36.50;6.53;;;;;;;;;;5063268;28;20040;-48
2022/01/30 07:59:40;;;;;;;39.65;8.10;;;;;;;;;;5064605;28;20036;-48
2022/01/30 08:02:08;;;;;;;39.83;6.03;;;5.30;99.90;;;;;;5064213;28;20053;-49
2022/01/30 08:04:34;;;;;;;39.42;7.28;;;;;;;;;;5062695;28;20048;-49
2022/01/30 08:07:01;;;;;;;37.15;7.05;;;;;;;;;;5063625;28;20120;-49
2022/01/30 08:09:27;;;;;;;47.13;7.57;;;5.30;99.90;;;;;;5062638;28;20082;-48
2022/01/30 08:11:53;;;;;;;40.70;8.40;;;;;;;;;;5064597;28;20048;-51
2022/01/30 08:14:19;;;;;;;40.58;7.72;;;;;;;;;;5063164;28;20041;-47
2022/01/30 08:16:46;;;;;;;28.83;5.70;;;5.40;99.90;;;;;;5065203;28;20049;-47
2022/01/30 08:19:12;;;;;;;42.72;8.27;;;5.30;99.90;;;;;;5061691;28;20044;-48
2022/01/30 08:21:38;;;;;;;38.25;7.85;;;;;;;;;;5062792;28;20409;-49
2022/01/30 08:24:08;;;;;;;38.85;7.95;;;5.40;99.90;;;;;;5061733;28;20508;-50
2022/01/30 08:26:34;;;;;;;38.55;7.78;;;5.30;99.90;;;;;;5062776;28;20049;-51
2022/01/30 08:29:00;;;;;;;49.13;14.73;;;;;;;;;;5062948;28;20112;-46
2022/01/30 08:31:26;;;;;;;42.17;8.95;;;;;;;;;;5063075;28;20052;-51
2022/01/30 08:33:52;;;;;;;51.63;8.90;;;;;;;;;;5062844;28;20060;-49
2022/01/30 08:36:18;;;;;;;38.63;6.72;;;;;;;;;;5062287;28;20048;-50
2022/01/30 08:38:44;;;;;;;37.42;6.50;;;;;;;;;;5062047;28;20041;-47
2022/01/30 08:41:10;;;;;;;44.63;9.35;;;5.90;99.90;;;;;;5062625;28;20044;-49
2022/01/30 08:43:36;;;;;;;48.70;9.55;;;5.90;99.90;;;;;;5062083;28;20028;-52
2022/01/30 08:46:03;;;;;;;35.65;6.70;;;5.80;99.90;;;;;;5062847;28;20055;-50
2022/01/30 08:48:31;;;;;;;38.38;6.93;;;;;;;;;;5062316;28;20055;-51
2022/01/30 08:50:57;;;;;;;45.80;7.35;;;;;;;;;;5062492;28;20808;-50
2022/01/30 08:53:23;;;;;;;44.92;9.05;;;;;;;;;;5062054;28;20599;-48
2022/01/30 08:55:49;;;;;;;45.03;7.82;;;5.60;99.90;;;;;;5061191;28;20037;-51
2022/01/30 08:58:16;;;;;;;45.15;8.70;;;5.60;99.90;;;;;;5062046;28;20040;-47
2022/01/30 09:00:44;;;;;;;48.63;9.30;;;5.60;99.90;;;;;;5060595;28;20732;-52
2022/01/30 09:03:10;;;;;;;38.83;7.78;;;5.50;99.90;;;;;;5061852;28;20044;-53
2022/01/30 09:05:38;;;;;;;40.10;7.72;;;6.10;99.90;;;;;;5059838;28;20085;-50
2022/01/30 09:08:05;;;;;;;49.53;9.48;;;6.60;99.90;;;;;;5060790;28;20036;-51
2022/01/30 09:10:39;;;;;;;36.38;7.95;;;6.90;99.90;;;;;;5061301;28;20072;-51
2022/01/30 09:13:07;;;;;;;49.78;7.05;;;6.70;99.90;;;;;;5061653;28;20101;-51
2022/01/30 09:15:38;;;;;;;37.25;6.60;;;6.50;99.90;;;;;;5062081;28;20045;-52
2022/01/30 09:18:08;;;;;;;48.17;8.80;;;6.50;99.90;;;;;;5062677;28;20043;-52
2022/01/30 09:20:39;;;;;;;48.90;8.45;;;7.00;99.90;;;;;;5063161;28;20079;-49
2022/01/30 09:23:05;;;;;;;41.17;9.23;;;7.40;99.90;;;;;;5061388;28;20052;-52
2022/01/30 09:25:31;;;;;;;43.50;8.52;;;7.90;99.90;;;;;;5062440;28;20058;-51
2022/01/30 09:27:57;;;;;;;49.83;8.55;;;7.80;99.90;;;;;;5062206;28;20032;-52
2022/01/30 09:30:23;;;;;;;41.85;8.88;;;7.60;99.90;;;;;;5061417;28;20036;-51
2022/01/30 09:32:49;;;;;;;48.85;7.70;;;7.30;99.90;;;;;;5062265;28;20105;-50
2022/01/30 09:35:17;;;;;;;47.47;8.30;;;7.00;99.90;;;;;;5062784;28;20472;-52
2022/01/30 09:37:42;;;;;;;44.33;7.97;;;6.70;99.90;;;;;;5060628;28;20045;-51
2022/01/30 09:40:09;;;;;;;55.20;8.82;;;6.60;99.90;;;;;;5060815;28;20416;-52
2022/01/30 09:42:35;;;;;;;43.53;9.23;;;7.10;99.90;;;;;;5059790;28;20090;-51
2022/01/30 09:45:04;;;;;;;37.88;7.68;;;7.40;99.90;;;;;;5060400;28;20040;-49
2022/01/30 09:47:31;;;;;;;40.63;8.27;;;7.80;99.90;;;;;;5059741;28;20501;-49
2022/01/30 09:49:59;;;;;;;39.30;6.78;;;8.00;99.90;;;;;;5061301;28;20055;-51
2022/01/30 09:52:24;;;;;;;36.58;9.25;;;7.80;99.90;;;;;;5060843;28;20147;-52
2022/01/30 09:54:50;;;;;;;35.65;7.43;;;8.00;99.90;;;;;;5059697;28;20143;-48
2022/01/30 09:57:18;;;;;;;37.75;8.60;;;7.90;99.90;;;;;;5059544;28;20040;-51
2022/01/30 09:59:45;;;;;;;33.63;5.88;;;7.90;99.90;;;;;;5059125;28;20566;-50
2022/01/30 10:02:12;;;;;;;38.47;7.43;;;9.10;99.90;;;;;;5061160;28;20122;-50
2022/01/30 10:04:39;;;;;;;38.47;7.32;;;8.10;99.90;;;;;;5060550;28;20047;-51
2022/01/30 10:07:15;;;;;;;34.45;6.70;;;9.20;99.90;;;;;;5058747;28;20040;-50
2022/01/30 10:09:46;;;;;;;33.17;6.97;;;8.40;99.90;;;;;;5060688;28;20115;-50
2022/01/30 10:12:19;;;;;;;38.67;7.68;;;8.30;99.90;;;;;;5060339;28;20048;-50
2022/01/30 10:15:06;;;;;;;36.05;6.57;;;8.40;99.90;;;;;;5061291;28;20044;-50
2022/01/30 10:18:02;;;;;;;41.65;7.78;;;8.00;99.90;;;;;;5061913;28;20040;-51
2022/01/30 10:20:27;;;;;;;45.05;7.88;;;7.60;99.90;;;;;;5011357;28;20151;-50
2022/01/30 10:22:59;;;;;;;37.70;7.30;;;7.10;99.90;;;;;;5008434;28;20100;-52
2022/01/30 10:25:30;;;;;;;53.42;7.95;;;7.10;99.90;;;;;;5006325;28;20050;-45
2022/01/30 10:28:16;;;;;;;49.88;7.93;;;6.80;99.90;;;;;;5008010;28;20049;-51
2022/01/30 10:30:53;;;;;;;43.75;7.90;;;6.90;99.90;;;;;;5005060;28;20056;-50
2022/01/30 10:33:40;;;;;;;48.15;9.57;;;6.70;99.90;;;;;;5004377;28;20398;-49
2022/01/30 10:36:10;;;;;;;46.95;9.13;;;6.70;99.90;;;;;;5007625;28;20207;-51
2022/01/30 10:38:41;;;;;;;48.30;8.00;;;6.50;99.90;;;;;;5006949;28;20046;-47
2022/01/30 10:41:15;;;;;;;54.80;11.70;;;6.50;99.90;;;;;;5004917;28;20519;-52
2022/01/30 10:43:55;;;;;;;37.78;8.20;;;6.70;99.90;;;;;;5007093;28;20285;-48
2022/01/30 10:46:31;;;;;;;40.15;7.10;;;6.90;99.90;;;;;;5013253;28;20128;-48
2022/01/30 10:49:09;;;;;;;32.97;6.45;;;6.90;99.90;;;;;;5015294;28;20595;-48
2022/01/30 10:51:36;;;;;;;38.45;7.32;;;7.10;99.90;;;;;;5010491;28;20591;-50
2022/01/30 10:54:11;;;;;;;37.63;7.45;;;7.30;99.90;;;;;;5008679;28;20103;-47
2022/01/30 10:56:38;;;;;;;38.22;7.78;;;7.30;99.90;;;;;;5025963;28;20805;-51
2022/01/30 10:59:11;;;;;;;47.35;7.95;;;7.30;99.90;;;;;;5060511;28;20036;-50
2022/01/30 11:01:42;;;;;;;35.72;6.65;;;7.50;99.90;;;;;;5060230;28;20041;-49
2022/01/30 11:04:24;;;;;;;40.47;6.78;;;7.60;99.90;;;;;;5060542;28;20511;-51
2022/01/30 11:06:50;;;;;;;40.92;8.18;;;8.00;99.90;;;;;;5060000;28;20064;-47
2022/01/30 11:09:22;;;;;;;43.72;6.90;;;7.90;99.90;;;;;;5059536;28;20040;-48
2022/01/30 11:11:54;;;;;;;;;;;7.70;99.90;;;;;;5060296;28;20517;-49
2022/01/30 11:14:23;;;;;;;34.20;6.72;;;7.60;99.90;;;;;;5059388;28;19924;-50
2022/01/30 11:19:23;;;;;;;41.47;6.43;;;7.40;99.90;;;;;;5064483;28;20044;-52
2022/01/30 11:21:51;;;;;;;41.47;7.65;;;7.40;99.90;;;;;;5064615;28;20040;-48
2022/01/30 11:24:19;;;;;;;44.30;7.93;;;7.50;99.90;;;;;;5062256;28;20131;-51
2022/01/30 11:26:46;;;;;;;33.40;6.28;;;7.60;99.90;;;;;;5064045;28;20048;-51
2022/01/30 11:29:14;;;;;;;37.95;7.35;;;8.50;99.90;;;;;;5064558;28;20044;-51
2022/01/30 11:31:41;;;;;;;37.97;6.68;;;7.70;99.90;;;;;;5064188;28;20036;-50
2022/01/30 11:34:07;;;;;;;37.25;6.15;;;7.80;99.90;;;;;;5064637;28;20105;-51
2022/01/30 11:36:36;;;;;;;37.90;6.43;;;7.80;99.90;;;;;;5064554;28;20074;-47
2022/01/30 11:39:03;;;;;;;37.83;6.97;;;7.80;99.90;;;;;;5064874;28;20044;-46
2022/01/30 11:41:34;;;;;;;36.58;6.85;;;9.00;99.90;;;;;;5063230;28;20060;-51
2022/01/30 11:44:18;;;;;;;40.85;7.80;;;7.60;99.90;;;;;;5064152;28;20056;-49
2022/01/30 11:46:55;;;;;;;36.53;6.13;;;9.00;99.90;;;;;;5062951;28;20044;-51
2022/01/30 11:49:21;;;;;;;40.63;7.57;;;7.30;99.90;;;;;;5064058;28;20130;-51
2022/01/30 11:51:54;;;;;;;41.58;7.63;;;7.20;99.90;;;;;;5062790;28;20028;-49
2022/01/30 11:54:33;;;;;;;33.53;7.43;;;7.00;99.90;;;;;;5062091;28;20721;-46
2022/01/30 11:56:58;;;;;;;48.60;9.15;;;7.20;99.90;;;;;;5064591;28;20044;-49
2022/01/30 11:59:38;;;;;;;43.17;6.35;;;8.30;99.90;;;;;;5062614;28;20455;-52
2022/01/30 12:02:30;;;;;;;36.90;6.50;;;7.30;99.90;;;;;;5065674;28;20047;-50
2022/01/30 12:05:01;;;;;;;41.77;6.70;;;7.20;99.90;;;;;;5060529;28;20157;-51
2022/01/30 12:07:46;;;;;;;35.35;6.85;;;7.00;99.90;;;;;;5061631;28;20040;-47
2022/01/30 12:10:20;;;;;;;42.70;7.57;;;7.10;99.90;;;;;;5065017;28;20044;-46
2022/01/30 12:13:06;;;;;;;43.33;8.98;;;7.00;99.90;;;;;;5064171;28;20044;-47
2022/01/30 12:15:39;;;;;;;42.22;6.50;;;7.90;99.90;;;;;;5010441;28;20232;-45
2022/01/30 12:18:12;;;;;;;33.42;6.60;;;7.10;99.90;;;;;;5009711;28;20077;-45
2022/01/30 12:20:56;;;;;;;38.58;6.70;;;7.10;99.90;;;;;;5004480;28;20596;-49
2022/01/30 12:23:30;;;;;;;38.13;7.65;;;7.30;99.90;;;;;;5008398;28;20093;-46
2022/01/30 12:26:04;;;;;;;33.65;7.38;;;7.20;99.90;;;;;;4992059;28;20133;-46
2022/01/30 12:28:42;;;;;;;35.65;7.25;;;7.20;99.90;;;;;;5009346;28;20128;-47
2022/01/30 12:31:29;;;;;;;38.75;7.65;;;7.10;99.90;;;;;;5015133;28;20050;-50
2022/01/30 12:34:00;;;;;;;43.42;8.02;;;7.00;99.90;;;;;;5009229;28;20052;-45
2022/01/30 12:36:27;;;;;;;39.47;6.72;;;6.90;99.90;;;;;;5012913;28;20081;-46
2022/01/30 12:38:59;;;;;;;43.50;7.28;;;6.80;99.90;;;;;;5009670;28;20046;-45
2022/01/30 12:41:26;;;;;;;32.80;5.85;;;6.90;99.90;;;;;;5005711;28;20026;-48
2022/01/30 12:43:55;;;;;;;43.40;7.43;;;7.00;99.90;;;;;;5016726;28;20045;-49
2022/01/30 12:46:27;;;;;;;41.70;7.72;;;7.00;99.90;;;;;;5008387;28;20064;-45
2022/01/30 12:49:07;;;;;;;37.90;6.68;;;6.90;99.90;;;;;;5008387;28;20053;-48
2022/01/30 12:51:35;;;;;;;30.63;6.68;;;7.10;99.90;;;;;;4996434;28;20103;-46
2022/01/30 12:54:04;;;;;;;33.95;5.68;;;7.10;99.90;;;;;;5060447;28;20119;-47
2022/01/30 12:56:30;;;;;;;30.42;5.35;;;7.10;99.90;;;;;;5060303;28;21138;-48
2022/01/30 12:59:05;;;;;;;38.55;6.07;;;7.00;99.90;;;;;;5062821;28;20044;-47
2022/01/30 13:01:32;;;;;;;38.75;7.10;;;7.30;99.90;;;;;;5061051;28;20501;-49
2022/01/30 13:04:08;;;;;;;25.52;5.50;;;7.40;99.90;;;;;;5062609;28;20509;-45
2022/01/30 13:06:43;;;;;;;28.63;5.70;;;7.00;99.90;;;;;;5060710;28;20051;-47
2022/01/30 13:09:09;;;;;;;35.58;7.68;;;7.00;99.90;;;;;;5062842;28;20079;-48
2022/01/30 13:11:35;;;;;;;33.90;6.95;;;6.90;99.90;;;;;;5062096;28;20064;-47
2022/01/30 13:14:05;;;;;;;27.60;5.95;;;6.50;99.90;;;;;;5063660;28;20412;-49
2022/01/30 13:16:34;;;;;;;34.60;6.13;;;6.50;99.90;;;;;;5063537;28;20084;-50
2022/01/30 13:19:01;;;;;;;30.70;5.15;;;6.40;99.90;;;;;;5062007;28;20044;-47
2022/01/30 13:21:30;;;;;;;44.13;7.75;;;6.50;99.90;;;;;;5062197;28;20068;-50
2022/01/30 13:23:57;;;;;;;38.00;5.28;;;6.70;99.90;;;;;;5062229;28;20048;-48
2022/01/30 13:26:35;;;;;;;31.00;7.40;;;6.50;99.90;;;;;;5061651;28;20102;-47
2022/01/30 13:29:03;;;;;;;35.05;5.95;;;6.80;99.90;;;;;;5062740;28;20046;-48
2022/01/30 13:31:31;;;;;;;31.33;7.07;;;6.80;99.90;;;;;;5061334;28;20040;-50
2022/01/30 13:34:30;;;;;;;28.88;5.22;;;6.60;99.90;;;;;;5061894;28;20047;-50
2022/01/30 13:37:03;;;;;;;35.25;6.85;;;6.60;99.90;;;;;;5014601;28;20081;-46
2022/01/30 13:39:36;;;;;;;28.65;5.25;;;6.70;99.90;;;;;;5010139;28;20132;-49
2022/01/30 13:46:54;;;;;;;30.98;5.53;;;6.80;99.90;;;;;;5003316;28;20049;-50
2022/01/30 13:48:07;;;;;;;31.13;5.47;;;6.70;99.90;;;;;;5012213;28;20046;-46
2022/01/30 13:51:03;;;;;;;39.53;6.40;;;6.60;99.90;;;;;;5011427;28;20091;-50
2022/01/30 13:53:29;;;;;;;34.10;6.25;;;6.70;99.90;;;;;;5003045;28;20099;-49
2022/01/30 13:55:57;;;;;;;33.88;6.20;;;6.70;99.90;;;;;;5015442;28;20090;-48
2022/01/30 13:58:30;;;;;;;34.25;5.68;;;6.70;99.90;;;;;;5000775;28;20499;-51
2022/01/30 14:00:56;;;;;;;36.22;7.53;;;6.80;99.90;;;;;;4987321;28;20045;-49
2022/01/30 14:03:24;;;;;;;39.47;6.38;;;6.70;99.90;;;;;;5011463;28;20065;-50
2022/01/30 14:05:52;;;;;;;35.45;6.38;;;6.80;99.90;;;;;;5004918;28;20050;-50
2022/01/30 14:08:20;;;;;;;33.13;5.57;;;6.70;99.90;;;;;;5002513;28;20042;-45
2022/01/30 14:10:47;;;;;;;30.75;5.53;;;8.20;99.90;;;;;;4993306;28;20049;-50
2022/01/30 14:13:20;;;;;;;36.15;6.10;;;6.70;99.90;;;;;;5049542;28;20064;-52
2022/01/30 14:16:05;;;;;;;34.72;6.63;;;6.60;99.90;;;;;;5059680;28;20497;-54
2022/01/30 14:18:35;;;;;;;29.00;5.43;;;6.90;99.90;;;;;;5062750;28;20043;-49
2022/01/30 14:21:03;;;;;;;34.28;8.20;;;6.90;99.90;;;;;;5060204;28;20028;-49
2022/01/30 14:23:37;;;;;;;28.23;5.32;;;6.80;99.90;;;;;;5058913;28;20048;-49
2022/01/30 14:26:17;;;;;;;37.33;5.80;;;6.80;99.90;;;;;;5059698;28;20041;-47